Time;durP1;ratioP1;P1;durP2;ratioP2;P2;SDS_P1;SDS_P2;PMS_P1;PMS_P2;Temp;Humidity;BMP_temperature;BMP_pressure;BME280_temperature;BME280_humidity;BME280_pressure;Samples;Min_cycle;Max_cycle;Signal;HPM_P1;HPM_P2
2022/04/22 00:01:50;;;;;;;29.08;24.73;;;;;;;8.87;90.87;100578.69;7394913;19;20022;-66
2022/04/22 00:04:18;;;;;;;28.33;23.88;;;;;;;8.87;90.97;100576.09;7396418;19;20026;-66
2022/04/22 00:06:46;;;;;;;30.08;24.67;;;;;;;8.88;90.81;100576.94;7394884;19;20376;-66
2022/04/22 00:09:14;;;;;;;28.60;24.27;;;;;;;8.87;91.00;100573.47;7396248;19;20014;-66
2022/04/22 00:11:42;;;;;;;28.30;23.67;;;;;;;8.87;91.05;100578.69;7395587;19;20031;-66
2022/04/22 00:14:11;;;;;;;29.17;24.13;;;;;;;8.89;91.05;100571.66;7396149;19;20022;-66
2022/04/22 00:16:42;;;;;;;30.08;24.42;;;;;;;8.88;91.02;100569.94;7395955;19;20015;-66
2022/04/22 00:19:10;;;;;;;27.17;23.80;;;;;;;8.88;91.09;100559.47;7394721;19;20031;-66
2022/04/22 00:21:41;;;;;;;28.80;23.55;;;;;;;8.89;90.99;100561.19;7394929;19;20380;-65
2022/04/22 00:24:10;;;;;;;28.10;23.90;;;;;;;8.88;91.16;100554.22;7395422;19;20524;-66
2022/04/22 00:26:38;;;;;;;32.22;25.15;;;;;;;8.90;91.05;100554.22;7395663;19;20039;-65
2022/04/22 00:29:07;;;;;;;30.10;24.83;;;;;;;8.88;91.26;100554.22;7395738;19;20313;-66
2022/04/22 00:31:35;;;;;;;29.30;25.05;;;;;;;8.86;91.10;100550.81;7393766;19;20015;-65
2022/04/22 00:34:06;;;;;;;30.40;24.08;;;;;;;8.86;91.27;100556.03;7395567;19;20022;-66
2022/04/22 00:36:35;;;;;;;27.88;24.23;;;;;;;8.86;91.17;100545.56;7396284;19;20045;-66
2022/04/22 00:39:05;;;;;;;30.25;24.48;;;;;;;8.86;91.21;100550.81;7393643;19;20019;-66
2022/04/22 00:41:33;;;;;;;28.23;23.75;;;;;;;8.86;91.14;100544.69;7394504;19;20526;-66
2022/04/22 00:44:01;;;;;;;27.48;23.40;;;;;;;8.85;91.09;100553.47;7395235;19;20069;-66
2022/04/22 00:46:29;;;;;;;27.48;23.23;;;;;;;8.84;91.09;100541.25;7393490;19;20035;-66
2022/04/22 00:48:58;;;;;;;28.13;23.73;;;;;;;8.83;91.21;100540.38;7395097;19;20031;-66
2022/04/22 00:51:28;;;;;;;28.20;23.67;;;;;;;8.83;91.13;100542.16;7394576;19;20019;-66
2022/04/22 00:53:56;;;;;;;29.25;24.23;;;;;;;8.82;91.32;100541.28;7395409;19;20022;-66
2022/04/22 00:56:24;;;;;;;28.83;23.73;;;;;;;8.81;91.26;100536.94;7394763;19;20022;-66
2022/04/22 00:58:53;;;;;;;28.60;24.48;;;;;;;8.80;91.38;100535.22;7402475;19;20035;-66
2022/04/22 01:01:21;;;;;;;32.03;25.30;;;;;;;8.80;91.44;100530.84;7401993;19;20027;-66
2022/04/22 01:11:56;;;;;;;29.20;24.40;;;;;;;8.73;91.59;100513.53;7401237;19;20102;-66
2022/04/22 01:14:25;;;;;;;29.50;24.27;;;;;;;8.71;91.55;100511.84;7400674;19;20010;-66
2022/04/22 01:16:53;;;;;;;27.45;23.42;;;;;;;8.70;91.45;100510.13;7401960;19;20022;-66
2022/04/22 01:19:21;;;;;;;26.42;21.80;;;;;;;8.69;91.54;100508.38;7401569;19;20500;-66
2022/04/22 01:21:52;;;;;;;26.85;22.65;;;;;;;8.69;91.48;100514.47;7400873;19;20019;-66
2022/04/22 01:24:20;;;;;;;28.58;22.80;;;;;;;8.69;91.37;100500.53;7399421;19;20022;-66
2022/04/22 01:26:49;;;;;;;25.55;21.15;;;;;;;8.69;91.12;100508.38;7400684;19;20018;-66
2022/04/22 01:29:17;;;;;;;24.65;20.20;;;;;;;8.69;91.15;100505.78;7401584;19;20039;-66
2022/04/22 01:31:45;;;;;;;26.77;19.70;;;;;;;8.68;91.13;100504.03;7398144;19;20481;-66
2022/04/22 01:34:14;;;;;;;20.15;18.02;;;;;;;8.67;91.00;100500.56;7401401;19;20347;-66
2022/04/22 01:36:42;;;;;;;19.85;17.80;;;;;;;8.68;90.68;100509.28;7401300;19;20492;-66
2022/04/22 01:39:13;;;;;;;21.10;17.25;;;;;;;8.68;90.56;100501.41;7398567;19;20066;-66
2022/04/22 01:41:41;;;;;;;19.08;15.38;;;;;;;8.67;90.42;100507.53;7400458;19;20035;-66
2022/04/22 01:44:09;;;;;;;21.60;16.88;;;;;;;8.68;90.38;100506.66;7401099;19;20056;-66
2022/04/22 01:46:38;;;;;;;18.75;15.50;;;;;;;8.66;90.30;100509.31;7398163;19;20014;-66
2022/04/22 01:49:06;;;;;;;16.45;13.90;;;;;;;8.66;90.14;100506.69;7398227;19;20022;-66
2022/04/22 01:51:34;;;;;;;16.85;14.32;;;;;;;8.66;89.77;100501.47;7397650;19;20018;-66
2022/04/22 01:54:02;;;;;;;15.88;13.77;;;;;;;8.64;89.62;100506.72;7400782;19;20414;-66
2022/04/22 01:56:33;;;;;;;16.00;13.02;;;;;;;8.63;89.58;100501.50;7400653;19;20018;-66
2022/04/22 01:59:01;;;;;;;18.98;13.35;;;;;;;8.61;89.30;100488.44;7398454;19;20043;-66
2022/04/22 02:01:29;;;;;;;14.98;12.63;;;;;;;8.61;89.29;100490.22;7399977;19;20032;-66
2022/04/22 02:03:57;;;;;;;16.45;12.10;;;;;;;8.58;88.94;100483.28;7400439;19;20100;-66
2022/04/22 02:06:25;;;;;;;17.83;14.25;;;;;;;8.58;88.81;100491.13;7399333;19;20031;-66
2022/04/22 02:08:54;;;;;;;17.33;13.88;;;;;;;8.56;88.65;100490.28;7399207;19;20419;-66
2022/04/22 02:11:22;;;;;;;19.55;15.55;;;;;;;8.55;88.70;100488.56;7398358;19;20018;-66
2022/04/22 02:13:52;;;;;;;18.55;15.15;;;;;;;8.53;88.61;100484.25;7400451;19;20035;-66
2022/04/22 02:16:20;;;;;;;21.70;15.07;;;;;;;8.50;88.60;100479.94;7397852;19;20044;-66
2022/04/22 02:18:49;;;;;;;15.93;12.38;;;;;;;8.50;88.38;100489.53;7400895;19;20041;-67
2022/04/22 02:21:18;;;;;;;17.80;12.25;;;;;;;8.46;88.31;100489.56;7399583;19;20019;-66
2022/04/22 02:23:46;;;;;;;13.70;10.73;;;;;;;8.43;88.38;100484.38;7399722;19;20042;-66
2022/04/22 02:26:14;;;;;;;14.63;11.60;;;;;;;8.41;88.31;100480.91;7399272;19;20478;-66
2022/04/22 02:28:40;;;;;;;14.38;10.80;;;;;;;8.39;88.20;100489.69;7397170;19;20424;-66
2022/04/22 02:31:12;;;;;;;12.23;10.05;;;;;;;8.39;88.12;100489.69;7398688;19;20014;-66
2022/04/22 02:33:42;;;;;;;12.57;9.85;;;;;;;8.36;87.94;100482.75;7399651;19;20010;-66
2022/04/22 02:36:11;;;;;;;13.15;10.00;;;;;;;8.35;87.89;100483.63;7396611;19;20035;-66
2022/04/22 02:38:40;;;;;;;12.38;9.82;;;;;;;8.34;87.89;100475.81;7396722;19;20018;-66
2022/04/22 02:46:32;;;;;;;11.82;9.30;;;;;;;8.31;87.43;100482.84;7399433;19;20044;-66
2022/04/22 02:49:01;;;;;;;13.85;9.77;;;;;;;8.28;87.37;100472.44;7399230;19;20035;-66
2022/04/22 02:51:37;;;;;;;11.73;8.95;;;;;;;8.26;87.44;100468.97;7396085;19;20498;-66
2022/04/22 02:54:05;;;;;;;11.38;8.70;;;;;;;8.25;87.27;100469.88;7398734;19;20018;-66
2022/04/22 02:56:41;;;;;;;11.90;8.90;;;;;;;8.23;87.21;100455.97;7396055;19;20026;-66
2022/04/22 02:59:10;;;;;;;9.25;8.00;;;;;;;8.23;87.18;100460.34;7398271;19;20504;-66
2022/04/22 03:01:43;;;;;;;10.73;8.00;;;;;;;8.21;86.97;100457.72;7397585;19;20475;-66
2022/04/22 03:04:12;;;;;;;11.98;8.82;;;;;;;8.18;86.98;100457.78;7398857;19;20018;-66
2022/04/22 03:06:40;;;;;;;10.13;7.55;;;;;;;8.18;86.86;100457.78;7396792;19;20361;-66
2022/04/22 03:09:08;;;;;;;11.70;7.85;;;;;;;8.16;86.80;100454.31;7398673;19;20023;-66
2022/04/22 03:11:36;;;;;;;10.70;7.82;;;;;;;8.16;86.79;100449.09;7395594;19;20522;-66
2022/04/22 03:14:05;;;;;;;10.73;7.70;;;;;;;8.16;86.89;100446.50;7398011;19;20031;-66
2022/04/22 03:16:35;;;;;;;10.27;7.28;;;;;;;8.13;86.60;100446.56;7395982;19;20026;-66
2022/04/22 03:19:05;;;;;;;11.30;7.47;;;;;;;8.09;86.34;100444.88;7397982;19;20018;-66
2022/04/22 03:21:34;;;;;;;11.07;7.70;;;;;;;8.05;86.41;100440.56;7394834;19;20019;-65
2022/04/22 03:24:02;;;;;;;9.88;7.53;;;;;;;7.99;86.43;100431.94;7397786;19;20025;-66
2022/04/22 03:26:30;;;;;;;10.18;7.43;;;;;;;7.98;86.40;100432.84;7397614;19;20018;-66
2022/04/22 03:28:58;;;;;;;11.98;7.75;;;;;;;7.98;86.16;100432.84;7395617;19;20036;-66
2022/04/22 03:31:27;;;;;;;13.00;7.47;;;;;;;7.98;86.13;100442.44;7395380;19;20022;-65
2022/04/22 03:33:55;;;;;;;8.90;7.82;;;;;;;7.96;86.17;100437.25;7397357;19;20022;-65
2022/04/22 03:36:25;;;;;;;10.25;8.05;;;;;;;7.96;86.13;100433.75;7396928;19;20022;-65
2022/04/22 03:38:54;;;;;;;11.02;7.30;;;;;;;7.95;85.99;100435.50;7395488;19;20022;-65
2022/04/22 03:41:22;;;;;;;10.63;7.30;;;;;;;7.94;85.93;100438.16;7394683;19;20014;-65
2022/04/22 03:43:50;;;;;;;13.27;7.45;;;;;;;7.94;85.77;100435.53;7396907;19;20035;-65
2022/04/22 03:46:18;;;;;;;11.23;7.85;;;;;;;7.92;85.78;100435.56;7397068;19;20010;-65
2022/04/22 03:48:46;;;;;;;11.68;7.43;;;;;;;7.91;85.73;100432.97;7394421;19;20018;-65
2022/04/22 03:51:15;;;;;;;11.18;7.03;;;;;;;7.89;85.54;100430.38;7396018;19;20025;-65
2022/04/22 03:53:46;;;;;;;10.95;7.18;;;;;;;7.88;85.68;100439.09;7395766;19;20477;-65
2022/04/22 03:58:55;;;;;;;12.13;7.25;;;;;;;7.85;85.51;100454.81;7396521;19;20477;-65
2022/04/22 04:01:23;;;;;;;9.88;6.80;;;;;;;7.83;85.55;100451.38;7395980;19;20371;-65
2022/04/22 04:03:51;;;;;;;10.60;7.60;;;;;;;7.81;85.21;100453.16;7396009;19;20026;-64
2022/04/22 04:06:19;;;;;;;9.32;7.32;;;;;;;7.76;85.43;100462.78;7393562;19;20035;-65
2022/04/22 04:15:57;;;;;;;9.00;7.10;;;;;;;7.74;85.43;100454.97;7394583;19;20023;-65
2022/04/22 04:17:02;;;;;;;8.88;6.65;;;;;;;7.64;85.02;100446.41;7395873;19;20373;-65
2022/04/22 04:24:54;;;;;;;9.25;6.70;;;;;;;7.52;84.78;100441.38;7395733;19;20047;-66
2022/04/22 04:27:22;;;;;;;11.77;6.30;;;;;;;7.52;85.10;100443.09;7393845;19;20380;-65
2022/04/22 04:29:50;;;;;;;12.48;6.43;;;;;;;7.50;84.92;100448.34;7395360;19;20011;-66
2022/04/22 04:32:19;;;;;;;9.30;6.57;;;;;;;7.50;84.96;100443.13;7391510;19;20477;-65
2022/04/22 04:34:47;;;;;;;13.70;5.85;;;;;;;7.49;85.02;100442.28;7394532;19;20011;-66
2022/04/22 04:37:16;;;;;;;10.18;6.53;;;;;;;7.48;84.81;100447.50;7395104;19;20035;-66
2022/04/22 04:39:44;;;;;;;10.32;7.20;;;;;;;7.44;84.80;100444.09;7395213;19;20018;-66
2022/04/22 04:42:15;;;;;;;10.25;7.00;;;;;;;7.44;84.90;100438.00;7393289;19;20015;-66
2022/04/22 04:44:44;;;;;;;10.52;6.75;;;;;;;7.44;84.87;100435.38;7395198;19;20018;-65
2022/04/22 04:47:12;;;;;;;10.45;6.75;;;;;;;7.43;84.90;100442.38;7393105;19;20018;-66
2022/04/22 04:49:40;;;;;;;9.05;5.80;;;;;;;7.43;84.94;100444.09;7392679;19;20018;-66
2022/04/22 04:52:09;;;;;;;9.27;6.60;;;;;;;7.44;84.91;100435.38;7392591;19;20513;-67
2022/04/22 04:54:37;;;;;;;9.32;6.35;;;;;;;7.43;85.07;100444.09;7394566;19;20054;-66
2022/04/22 04:57:06;;;;;;;11.85;6.72;;;;;;;7.42;84.92;100434.53;7394551;19;20031;-66
2022/04/22 04:59:37;;;;;;;10.23;7.13;;;;;;;7.38;84.97;100427.63;7394147;19;20023;-66
2022/04/22 05:02:05;;;;;;;10.38;6.35;;;;;;;7.41;85.02;100427.63;7393891;19;20018;-66
2022/04/22 05:04:34;;;;;;;11.20;6.40;;;;;;;7.40;84.78;100425.88;7392321;19;20026;-66
2022/04/22 05:07:37;;;;;;;11.18;6.97;;;;;;;7.37;84.47;100439.84;7392079;19;20034;-66
2022/04/22 05:10:06;;;;;;;12.48;7.43;;;;;;;7.32;84.59;100429.44;7393734;19;20481;-67
2022/04/22 05:12:35;;;;;;;13.13;6.50;;;;;;;7.27;84.21;100426.03;7391683;19;20022;-67
2022/04/22 05:15:08;;;;;;;9.27;6.60;;;;;;;7.24;84.59;100430.44;7394244;19;20049;-65
2022/04/22 05:17:36;;;;;;;8.38;6.20;;;;;;;7.22;84.49;100440.91;7393801;19;20015;-65
2022/04/22 05:20:05;;;;;;;10.90;6.57;;;;;;;7.23;84.39;100441.75;7391782;19;20022;-66
2022/04/22 05:22:33;;;;;;;11.25;7.53;;;;;;;7.23;84.50;100434.81;7392374;19;20033;-66
2022/04/22 05:25:01;;;;;;;14.73;7.28;;;;;;;7.26;84.36;100439.97;7393527;19;20018;-66
2022/04/22 05:27:29;;;;;;;12.43;6.18;;;;;;;7.27;84.28;100440.84;7391912;19;20023;-65
2022/04/22 05:32:42;;;;;;;13.15;7.00;;;;;;;7.25;84.10;100432.16;7392810;19;20022;-66
2022/04/22 05:35:11;;;;;;;11.80;6.85;;;;;;;7.21;83.80;100420.91;7393649;19;20011;-65
2022/04/22 05:37:50;;;;;;;12.48;7.45;;;;;;;7.25;83.70;100432.16;7393295;19;20050;-66
2022/04/22 05:40:21;;;;;;;9.15;6.97;;;;;;;7.23;83.38;100429.59;7392319;19;20415;-67
2022/04/22 05:42:50;;;;;;;13.18;7.57;;;;;;;7.24;83.50;100430.44;7391139;19;20031;-67
2022/04/22 05:45:20;;;;;;;10.35;7.15;;;;;;;7.22;83.55;100435.69;7396313;19;20098;-67
2022/04/22 05:47:51;;;;;;;11.60;6.65;;;;;;;7.23;83.50;100437.41;7399980;19;20474;-66
2022/04/22 05:50:20;;;;;;;15.30;7.40;;;;;;;7.24;83.37;100436.53;7401214;19;20014;-66
2022/04/22 05:52:49;;;;;;;14.85;8.57;;;;;;;7.27;83.54;100441.69;7398747;19;20011;-66
2022/04/22 05:55:20;;;;;;;13.75;6.63;;;;;;;7.32;83.24;100439.03;7400495;19;20027;-66
2022/04/22 05:57:49;;;;;;;12.30;7.57;;;;;;;7.33;83.24;100432.94;7400715;19;20034;-66
2022/04/22 06:00:19;;;;;;;13.57;8.63;;;;;;;7.34;83.18;100432.91;7397348;19;20579;-66
2022/04/22 06:02:51;;;;;;;12.57;7.55;;;;;;;7.38;83.24;100431.13;7397500;19;20031;-66
2022/04/22 06:05:21;;;;;;;12.98;7.88;;;;;;;7.43;83.00;100431.94;7400044;19;20027;-65
2022/04/22 06:10:31;;;;;;;10.07;7.22;;;;;;;7.50;83.05;100427.47;7398046;19;20003;-67
2022/04/22 06:10:37;;;;;;;14.77;7.68;;;;;;;7.56;82.93;100432.63;7399497;19;20738;-65
2022/04/22 06:13:06;;;;;;;13.82;7.45;;;;;;;7.61;82.69;100428.19;7398026;19;20011;-67
2022/04/22 06:15:35;;;;;;;15.82;7.75;;;;;;;7.67;82.42;100424.59;7400116;19;20041;-66
2022/04/22 06:18:07;;;;;;;13.45;7.88;;;;;;;7.73;82.30;100426.28;7397125;19;20022;-67
2022/04/22 06:20:35;;;;;;;11.05;7.60;;;;;;;7.77;82.01;100422.72;7399543;19;20423;-66
2022/04/22 06:23:03;;;;;;;19.83;8.40;;;;;;;7.78;82.10;100427.06;7396926;19;20018;-66
2022/04/22 06:25:32;;;;;;;10.15;7.75;;;;;;;7.86;82.02;100429.56;7397018;19;20035;-65
2022/04/22 06:28:00;;;;;;;17.23;7.80;;;;;;;7.92;81.84;100422.50;7398402;19;20014;-66
2022/04/22 06:30:28;;;;;;;12.93;7.82;;;;;;;7.96;81.37;100418.06;7398792;19;20509;-66
2022/04/22 06:32:58;;;;;;;10.82;8.27;;;;;;;8.02;81.37;100422.34;7396541;19;20031;-66
2022/04/22 06:35:29;;;;;;;13.20;7.60;;;;;;;8.08;81.21;100420.50;7398845;19;20034;-66
2022/04/22 06:38:00;;;;;;;10.70;7.35;;;;;;;8.13;81.01;100421.28;7398096;19;20031;-66
2022/04/22 06:45:55;;;;;;;15.48;8.98;;;;;;;8.33;80.45;100417.47;7393706;19;20477;-65
2022/04/22 06:48:30;;;;;;;13.35;8.35;;;;;;;8.41;80.36;100420.78;7398069;19;20018;-65
2022/04/22 06:51:02;;;;;;;11.95;7.85;;;;;;;8.48;80.02;100424.22;7399009;19;20014;-66
2022/04/22 06:53:31;;;;;;;11.93;8.43;;;;;;;8.56;79.75;100418.84;7396132;19;20035;-65
2022/04/22 06:56:02;;;;;;;14.45;7.97;;;;;;;8.64;79.71;100420.41;7396109;19;20114;-65
2022/04/22 06:58:33;;;;;;;12.27;7.45;;;;;;;8.72;79.44;100422.88;7396194;19;20366;-65
2022/04/22 07:01:02;;;;;;;15.30;8.32;;;;;;;8.78;79.05;100427.13;7396814;19;20019;-66
2022/04/22 07:03:30;;;;;;;11.10;7.47;;;;;;;8.85;78.83;100431.34;7396550;19;20015;-66
2022/04/22 07:06:02;;;;;;;10.13;7.03;;;;;;;8.93;78.57;100420.72;7397573;19;20592;-67
2022/04/22 07:08:30;;;;;;;13.57;7.80;;;;;;;8.99;78.23;100414.53;7395914;19;20346;-66
2022/04/22 07:11:04;;;;;;;13.32;8.13;;;;;;;9.04;78.28;100413.53;7398236;19;20015;-65
2022/04/22 07:13:32;;;;;;;;;;;;;;;9.07;77.22;100410.84;7397942;19;20414;-65
2022/04/22 07:16:02;;;;;;;17.38;9.10;;;;;;;9.10;77.89;100413.41;7394877;19;19923;-65
2022/04/22 07:18:30;;;;;;;15.95;8.98;;;;;;;9.13;77.56;100407.22;7397279;19;20506;-65
2022/04/22 07:21:02;;;;;;;13.15;8.85;;;;;;;9.13;77.42;100412.47;7396784;19;20046;-66
2022/04/22 07:23:30;;;;;;;20.80;12.48;;;;;;;9.16;77.39;100408.91;7395259;19;20039;-66
2022/04/22 07:25:59;;;;;;;20.58;12.20;;;;;;;9.21;77.49;100410.56;7395260;19;20019;-66
2022/04/22 07:28:30;;;;;;;17.60;9.38;;;;;;;9.28;77.29;100421.75;7396464;19;20015;-66
2022/04/22 07:30:59;;;;;;;13.27;8.48;;;;;;;9.31;77.06;100428.69;7395244;19;20372;-66
2022/04/22 07:33:28;;;;;;;12.90;7.88;;;;;;;9.33;76.82;100432.13;7395165;19;20049;-67
2022/04/22 07:35:56;;;;;;;11.90;8.40;;;;;;;9.33;76.85;100430.38;7395247;19;20018;-67
2022/04/22 07:38:28;;;;;;;12.38;8.43;;;;;;;9.37;76.78;100425.94;7396937;19;20035;-67
2022/04/22 07:40:56;;;;;;;12.45;7.60;;;;;;;9.41;76.75;100432.81;7394902;19;20035;-66
2022/04/22 07:48:47;;;;;;;11.75;7.90;;;;;;;9.49;76.29;100427.41;7396062;19;20011;-68
2022/04/22 07:51:15;;;;;;;13.30;8.95;;;;;;;9.50;76.27;100426.50;7394679;19;20015;-66
2022/04/22 07:53:46;;;;;;;14.48;8.82;;;;;;;9.54;76.32;100434.28;7396283;19;20035;-66
2022/04/22 07:56:14;;;;;;;11.85;7.70;;;;;;;9.58;76.29;100425.44;7394918;19;20018;-66
2022/04/22 07:58:42;;;;;;;13.90;9.35;;;;;;;9.57;76.18;100423.72;7396305;19;20022;-66
2022/04/22 08:01:11;;;;;;;14.93;8.90;;;;;;;9.61;75.99;100427.97;7395642;19;20023;-66
2022/04/22 08:03:39;;;;;;;13.52;8.70;;;;;;;9.63;75.92;100425.34;7393954;19;20034;-66
2022/04/22 08:06:10;;;;;;;16.52;9.05;;;;;;;9.62;75.86;100426.25;7395750;19;20037;-66
2022/04/22 08:08:38;;;;;;;10.45;8.23;;;;;;;9.64;75.91;100420.97;7392873;19;20010;-66
2022/04/22 08:11:09;;;;;;;13.38;9.23;;;;;;;9.62;75.73;100424.47;7395258;19;20490;-66
2022/04/22 08:13:37;;;;;;;13.90;9.25;;;;;;;9.63;75.85;100417.50;7393903;19;20039;-66
2022/04/22 08:16:06;;;;;;;12.98;9.55;;;;;;;9.63;75.88;100425.34;7395514;19;20031;-66
2022/04/22 08:18:34;;;;;;;14.20;9.68;;;;;;;9.66;75.89;100424.44;7395557;19;20018;-66
2022/04/22 08:21:02;;;;;;;15.20;9.15;;;;;;;9.68;75.83;100422.59;7393571;19;20026;-66
2022/04/22 08:23:30;;;;;;;12.93;7.97;;;;;;;9.72;75.68;100416.44;7392994;19;20015;-66
2022/04/22 08:25:58;;;;;;;18.30;9.77;;;;;;;9.77;75.75;100414.56;7393411;19;20022;-66
2022/04/22 08:28:29;;;;;;;12.20;8.70;;;;;;;9.84;75.81;100415.25;7393472;19;20018;-66
2022/04/22 08:30:58;;;;;;;14.93;9.73;;;;;;;9.93;75.49;100421.16;7394983;19;20014;-66
2022/04/22 08:33:26;;;;;;;15.02;9.15;;;;;;;10.04;75.38;100417.41;7392673;19;20425;-67
2022/04/22 08:35:56;;;;;;;13.32;9.02;;;;;;;10.13;75.25;100432.03;7392131;19;20382;-66
2022/04/22 08:38:24;;;;;;;12.93;9.60;;;;;;;10.22;75.03;100427.44;7393388;19;20019;-66
2022/04/22 08:40:53;;;;;;;13.55;9.50;;;;;;;10.31;74.69;100418.44;7392745;19;20018;-66
2022/04/22 08:43:23;;;;;;;14.15;9.25;;;;;;;10.40;74.37;100420.88;7393053;19;20018;-67
2022/04/22 08:45:54;;;;;;;12.98;8.93;;;;;;;10.50;74.28;100421.50;7395195;19;20019;-65
2022/04/22 08:51:04;;;;;;;12.95;8.10;;;;;;;10.72;73.71;100411.28;7394860;19;20014;-65
2022/04/22 08:53:34;;;;;;;14.48;9.57;;;;;;;10.86;73.46;100413.50;7392985;19;20031;-66
2022/04/22 08:56:07;;;;;;;11.55;9.43;;;;;;;10.97;73.21;100405.34;7392530;19;20480;-67
2022/04/22 08:58:36;;;;;;;15.48;9.52;;;;;;;11.09;72.98;100406.75;7394943;19;20048;-65
2022/04/22 09:01:07;;;;;;;11.13;8.43;;;;;;;11.21;72.52;100405.53;7393857;19;20018;-67
2022/04/22 09:03:35;;;;;;;14.05;8.93;;;;;;;11.35;72.43;100405.13;7393837;19;20509;-67
2022/04/22 09:06:04;;;;;;;14.68;9.68;;;;;;;11.47;72.02;100401.25;7393719;19;20399;-67
2022/04/22 09:08:33;;;;;;;12.68;8.90;;;;;;;11.60;71.69;100401.72;7390308;19;20366;-65
2022/04/22 09:11:05;;;;;;;10.93;8.75;;;;;;;11.72;70.92;100402.19;7393778;19;20026;-64
2022/04/22 09:13:33;;;;;;;10.93;9.00;;;;;;;11.83;70.79;100393.97;7391614;19;20018;-65
2022/04/22 09:16:02;;;;;;;13.55;9.02;;;;;;;11.92;70.65;100395.44;7392863;19;20035;-65
2022/04/22 09:18:37;;;;;;;32.20;19.60;;;;;;;12.03;70.43;100389.84;7394320;19;20019;-65
2022/04/22 09:21:06;;;;;;;18.33;10.68;;;;;;;12.15;70.31;100394.69;7401370;19;20025;-65
2022/04/22 09:23:36;;;;;;;12.80;8.57;;;;;;;12.28;69.75;100391.66;7401323;19;20087;-65
2022/04/22 09:26:06;;;;;;;11.60;9.10;;;;;;;12.40;69.28;100391.22;7400658;19;20015;-66
2022/04/22 09:28:35;;;;;;;16.00;9.65;;;;;;;12.51;69.33;100394.34;7397832;19;20014;-66
2022/04/22 09:31:06;;;;;;;13.63;9.35;;;;;;;12.66;69.12;100403.47;7400564;19;20011;-65
2022/04/22 09:33:47;;;;;;;13.35;9.90;;;;;;;12.82;68.34;100392.38;7397699;19;20014;-66
2022/04/22 09:44:18;;;;;;;13.13;8.80;;;;;;;13.11;67.15;100374.63;7400050;19;20019;-65
2022/04/22 09:46:46;;;;;;;12.77;8.77;;;;;;;13.15;66.96;100373.59;7400114;19;20019;-66
2022/04/22 09:49:39;;;;;;;13.15;8.73;;;;;;;13.18;65.79;100373.44;7399439;19;20023;-67
2022/04/22 09:52:08;;;;;;;10.88;8.30;;;;;;;13.18;66.27;100374.31;7397717;19;20023;-66
2022/04/22 09:54:38;;;;;;;11.20;8.80;;;;;;;13.20;66.25;100374.25;7397688;19;20022;-65
2022/04/22 09:57:07;;;;;;;13.18;9.23;;;;;;;13.21;65.76;100373.34;7397638;19;20477;-66
2022/04/22 09:59:35;;;;;;;11.48;9.10;;;;;;;13.20;65.54;100361.97;7400062;19;20026;-66
2022/04/22 10:02:04;;;;;;;11.85;9.02;;;;;;;13.22;65.64;100369.81;7397385;19;20023;-66
2022/04/22 10:04:35;;;;;;;13.15;9.73;;;;;;;13.22;65.43;100364.53;7399204;19;20500;-66
2022/04/22 10:07:04;;;;;;;11.85;9.18;;;;;;;13.20;65.66;100369.88;7399483;19;20018;-66
2022/04/22 10:09:34;;;;;;;18.60;8.88;;;;;;;13.20;65.44;100356.69;7398967;19;20022;-67
2022/04/22 10:12:06;;;;;;;12.25;8.15;;;;;;;13.31;65.25;100369.44;7398319;19;20027;-67
2022/04/22 10:14:40;;;;;;;13.68;8.85;;;;;;;13.40;64.49;100367.41;7399791;19;20492;-66
2022/04/22 10:17:10;;;;;;;18.55;9.00;;;;;;;13.50;64.98;100356.41;7399089;19;20474;-66
2022/04/22 10:19:41;;;;;;;13.02;8.85;;;;;;;13.66;64.85;100361.06;7399169;19;20015;-67
2022/04/22 10:22:12;;;;;;;13.63;9.60;;;;;;;13.78;63.52;100357.94;7396564;19;20485;-65
2022/04/22 10:24:42;;;;;;;12.05;7.90;;;;;;;13.87;63.45;100358.47;7398946;19;20026;-67
2022/04/22 10:27:12;;;;;;;10.48;8.23;;;;;;;13.95;63.05;100359.00;7397824;19;20124;-66
2022/04/22 10:29:44;;;;;;;14.02;9.05;;;;;;;13.99;61.75;100360.63;7396803;19;20405;-67
2022/04/22 10:32:20;;;;;;;14.00;9.23;;;;;;;14.01;62.35;100367.53;7397295;19;20453;-67
2022/04/22 10:34:59;;;;;;;12.25;9.23;;;;;;;14.02;61.47;100363.09;7398692;19;20127;-69
2022/04/22 10:37:31;;;;;;;10.75;9.07;;;;;;;14.05;62.32;100362.97;7401538;19;20019;-68
2022/04/22 10:40:00;;;;;;;11.27;8.95;;;;;;;14.04;62.40;100365.66;7399025;19;20038;-70
2022/04/22 10:42:33;;;;;;;11.52;8.55;;;;;;;14.02;61.73;100363.09;7397947;19;20028;-70
2022/04/22 10:47:56;;;;;;;11.88;8.40;;;;;;;13.89;61.70;100364.53;7398566;19;20517;-69
2022/04/22 10:50:29;;;;;;;11.63;8.07;;;;;;;13.82;62.33;100362.16;7397457;19;20015;-69
2022/04/22 10:53:01;;;;;;;13.18;8.23;;;;;;;13.78;62.49;100357.09;7397532;19;20039;-70
2022/04/22 10:55:30;;;;;;;10.23;7.85;;;;;;;13.79;62.87;100359.66;7395823;19;20014;-69
2022/04/22 10:58:26;;;;;;;12.40;8.43;;;;;;;13.84;62.02;100357.69;7398239;19;20019;-68
2022/04/22 11:00:57;;;;;;;15.38;9.02;;;;;;;13.88;62.46;100363.69;7395296;19;20414;-67
2022/04/22 11:03:27;;;;;;;14.45;9.27;;;;;;;13.87;62.16;100358.47;7396086;19;20026;-70
2022/04/22 11:06:02;;;;;;;19.55;9.43;;;;;;;13.89;60.96;100360.13;7396244;19;20014;-69
2022/04/22 11:08:32;;;;;;;12.35;9.85;;;;;;;13.88;61.61;100370.75;7396902;19;20087;-70
2022/04/22 11:11:09;;;;;;;11.57;8.77;;;;;;;13.84;61.32;100368.22;7396475;19;20030;-68
2022/04/22 11:13:44;;;;;;;16.58;11.80;;;;;;;13.84;61.75;100368.22;7398351;19;20014;-68
2022/04/22 11:16:16;;;;;;;15.02;10.90;;;;;;;13.88;61.55;100365.47;7398707;19;20018;-68
2022/04/22 11:18:45;;;;;;;16.17;11.13;;;;;;;13.89;61.60;100365.41;7397789;19;20019;-70
2022/04/22 11:21:39;;;;;;;15.30;9.90;;;;;;;13.91;61.49;100362.69;7396818;19;20029;-68
2022/04/22 11:24:09;;;;;;;13.43;10.00;;;;;;;13.94;61.52;100365.19;7394483;19;20014;-67
2022/04/22 11:26:38;;;;;;;16.48;11.18;;;;;;;14.04;61.59;100368.31;7395944;19;20031;-68
2022/04/22 11:29:10;;;;;;;12.65;9.52;;;;;;;14.08;60.84;100365.50;7395560;19;20022;-69
2022/04/22 11:31:39;;;;;;;15.02;10.60;;;;;;;14.13;60.93;100352.97;7394432;19;20022;-69
2022/04/22 11:34:12;;;;;;;13.05;9.98;;;;;;;14.16;60.79;100363.38;7393714;19;20510;-65
2022/04/22 11:36:51;;;;;;;12.80;10.23;;;;;;;14.22;60.37;100358.78;7394589;19;20379;-66
2022/04/22 11:39:26;;;;;;;13.10;10.45;;;;;;;14.24;60.71;100360.44;7396893;19;20022;-64
2022/04/22 11:41:57;;;;;;;12.50;10.23;;;;;;;14.24;60.55;100360.44;7392191;19;20042;-66
2022/04/22 11:44:26;;;;;;;15.07;10.82;;;;;;;14.22;60.58;100361.41;7396197;19;20458;-67
2022/04/22 11:46:54;;;;;;;16.65;11.57;;;;;;;14.14;60.51;100359.97;7396116;19;20039;-64
2022/04/22 11:49:23;;;;;;;17.02;12.00;;;;;;;14.08;60.75;100365.50;7396427;19;20018;-67
2022/04/22 11:51:57;;;;;;;14.43;11.65;;;;;;;14.02;60.73;100360.47;7394094;19;20027;-68
2022/04/22 11:54:26;;;;;;;;;;;;;;;13.99;60.00;100357.97;7395198;19;20077;-68
2022/04/22 11:56:54;;;;;;;16.40;13.15;;;;;;;14.00;61.07;100351.75;7395738;19;20342;-65
2022/04/22 11:59:23;;;;;;;23.83;15.00;;;;;;;14.05;61.29;100360.31;7396119;19;20031;-67
2022/04/22 12:10:09;;;;;;;17.33;13.80;;;;;;;14.13;60.93;100355.59;7395752;19;20006;-66
2022/04/22 12:12:48;;;;;;;15.90;13.30;;;;;;;14.10;60.55;100355.75;7394601;19;20023;-66
2022/04/22 12:15:19;;;;;;;17.02;14.15;;;;;;;14.05;61.30;100349.78;7394318;19;20022;-67
2022/04/22 12:17:48;;;;;;;17.38;12.85;;;;;;;14.05;61.30;100349.78;7394128;19;20031;-65
2022/04/22 12:20:17;;;;;;;16.58;13.43;;;;;;;14.05;61.44;100356.84;7394707;19;20015;-66
2022/04/22 12:22:51;;;;;;;17.75;13.13;;;;;;;14.08;61.65;100354.94;7393838;19;20035;-66
2022/04/22 12:25:23;;;;;;;19.23;13.90;;;;;;;14.12;61.62;100351.25;7394897;19;20028;-68
2022/04/22 12:28:07;;;;;;;18.25;14.02;;;;;;;14.16;61.02;100342.25;7395538;19;20018;-66
2022/04/22 12:30:39;;;;;;;16.40;14.10;;;;;;;14.22;61.51;100345.59;7392993;19;20041;-67
2022/04/22 12:33:08;;;;;;;18.83;15.40;;;;;;;14.28;61.11;100347.94;7393235;19;20014;-66
2022/04/22 12:35:38;;;;;;;20.35;16.27;;;;;;;14.28;60.85;100346.16;7394644;19;20091;-66
2022/04/22 12:38:09;;;;;;;17.60;15.18;;;;;;;14.26;60.60;100337.44;7395170;19;20019;-66